Time;durP1;ratioP1;P1;durP2;ratioP2;P2;SDS_P1;SDS_P2;PMS_P1;PMS_P2;Temp;Humidity;BMP_temperature;BMP_pressure;BME280_temperature;BME280_humidity;BME280_pressure;Samples;Min_cycle;Max_cycle;Signal;HPM_P1;HPM_P2
2022/09/09 00:00:23;;;;;;;;;;;;;;;25.27;42.65;100894.58;104694;1306;60478;-84
2022/09/09 00:03:16;;;;;;;;;;;;;;;25.26;42.66;100891.79;104639;1306;60608;-84
2022/09/09 00:05:50;;;;;;;;;;;;;;;25.27;42.75;100890.85;104556;1309;73673;-84
2022/09/09 00:08:19;;;;;;;;;;;;;;;25.27;42.59;100894.29;104665;1306;73815;-83
2022/09/09 00:10:46;;;;;;;;;;;;;;;25.27;42.77;100893.55;104610;1309;60473;-83
2022/09/09 00:13:11;;;;;;;;;;;;;;;25.27;42.77;100893.73;104673;1306;60501;-84
2022/09/09 00:15:43;;;;;;;;;;;;;;;25.27;42.61;100893.35;104673;1306;60415;-84
2022/09/09 00:18:29;;;;;;;;;;;;;;;25.26;42.66;100892.66;104680;1306;73897;-84
2022/09/09 00:20:58;;;;;;;;;;;;;;;25.26;42.66;100896.29;104687;1306;60462;-84
2022/09/09 00:23:25;;;;;;;;;;;;;;;25.26;42.66;100898.45;104637;1307;61578;-84
2022/09/09 00:25:56;;;;;;;;;;;;;;;25.26;42.55;100900.61;104691;1306;72939;-84
2022/09/09 00:28:25;;;;;;;;;;;;;;;25.26;42.55;100899.36;104666;1306;73919;-84
2022/09/09 00:30:50;;;;;;;;;;;;;;;25.26;42.53;100895.41;104673;1306;60471;-84
2022/09/09 00:33:18;;;;;;;;;;;;;;;25.26;42.58;100891.99;104802;1306;60477;-83
2022/09/09 00:35:50;;;;;;;;;;;;;;;25.26;42.49;100896.70;104623;1307;60574;-85
2022/09/09 00:38:18;;;;;;;;;;;;;;;25.25;42.59;100892.40;104696;1306;74896;-85
2022/09/09 00:41:02;;;;;;;;;;;;;;;25.26;42.42;100893.29;104688;1306;60341;-84
2022/09/09 00:43:31;;;;;;;;;;;;;;;25.25;42.48;100892.23;104789;1306;61986;-85
2022/09/09 00:46:06;;;;;;;;;;;;;;;25.25;42.61;100889.15;104818;1306;73995;-85
2022/09/09 00:48:38;;;;;;;;;;;;;;;25.25;42.42;100893.66;104801;1306;75023;-83
2022/09/09 00:51:10;;;;;;;;;;;;;;;25.26;42.62;100894.36;104767;1306;60410;-83
2022/09/09 00:53:42;;;;;;;;;;;;;;;25.25;42.60;100901.79;104622;1307;60335;-83
2022/09/09 00:56:14;;;;;;;;;;;;;;;25.26;42.53;100896.88;104686;1306;72645;-83
2022/09/09 00:58:43;;;;;;;;;;;;;;;25.25;42.54;100893.84;104690;1306;73956;-83
2022/09/09 01:01:12;;;;;;;;;;;;;;;25.25;42.51;100894.39;104596;1307;61475;-86
2022/09/09 01:03:45;;;;;;;;;;;;;;;25.25;42.55;100893.89;104610;1307;60559;-84
2022/09/09 01:06:21;;;;;;;;;;;;;;;25.25;42.54;100888.48;104677;1306;73856;-85
2022/09/09 01:08:59;;;;;;;;;;;;;;;25.25;42.65;100890.12;104591;1307;74888;-84
2022/09/09 01:11:43;;;;;;;;;;;;;;;25.25;42.47;100889.92;104690;1306;61280;-86
2022/09/09 01:14:27;;;;;;;;;;;;;;;25.25;42.46;100886.66;104606;1307;61507;-86
2022/09/09 01:16:56;;;;;;;;;;;;;;;25.25;42.51;100888.81;104754;1306;73170;-84
2022/09/09 01:19:27;;;;;;;;;;;;;;;25.25;42.54;100886.11;104756;1306;74883;-83
2022/09/09 01:22:04;;;;;;;;;;;;;;;25.25;42.54;100883.98;104810;1306;60619;-84
2022/09/09 01:24:38;;;;;;;;;;;;;;;25.25;42.54;100881.81;104793;1306;60927;-85
2022/09/09 01:27:04;;;;;;;;;;;;;;;25.24;42.58;100886.54;104775;1306;72829;-85
2022/09/09 01:29:29;;;;;;;;;;;;;;;25.25;42.56;100885.95;104695;1306;60481;-86
2022/09/09 01:31:56;;;;;;;;;;;;;;;25.24;42.73;100888.52;104844;1306;60564;-86
2022/09/09 01:34:22;;;;;;;;;;;;;;;25.25;42.35;100882.00;104602;1308;60575;-83
2022/09/09 01:36:50;;;;;;;;;;;;;;;25.24;42.47;100880.83;104705;1306;60506;-83
2022/09/09 01:39:16;;;;;;;;;;;;;;;25.24;42.46;100880.42;104669;1306;73982;-84
2022/09/09 01:41:41;;;;;;;;;;;;;;;25.24;42.45;100878.80;104656;1306;60582;-84
2022/09/09 01:44:07;;;;;;;;;;;;;;;25.24;42.54;100875.42;104626;1307;60539;-84
2022/09/09 01:46:32;;;;;;;;;;;;;;;25.24;42.49;100875.41;104687;1307;60502;-84
2022/09/09 01:48:58;;;;;;;;;;;;;;;25.24;42.48;100878.12;104714;1306;60495;-83
2022/09/09 01:51:23;;;;;;;;;;;;;;;25.24;42.51;100876.89;104675;1306;74409;-83
2022/09/09 01:53:49;;;;;;;;;;;;;;;25.24;42.61;100873.98;104613;1307;60479;-83
2022/09/09 01:56:33;;;;;;;;;;;;;;;25.23;42.53;100870.95;104598;1307;60484;-83
2022/09/09 01:59:17;;;;;;;;;;;;;;;25.23;42.54;100867.57;104667;1306;72856;-83
2022/09/09 02:01:49;;;;;;;;;;;;;;;25.23;42.55;100874.23;104692;1306;73966;-84
2022/09/09 02:04:36;;;;;;;;;;;;;;;25.23;42.56;100875.30;104798;1306;61144;-84
2022/09/09 02:07:01;;;;;;;;;;;;;;;25.23;42.53;100880.16;104783;1306;62007;-85
2022/09/09 02:09:27;;;;;;;;;;;;;;;25.23;42.44;100878.70;104758;1306;60604;-84
2022/09/09 02:11:56;;;;;;;;;;;;;;;25.23;42.53;100870.84;104680;1306;60477;-83
2022/09/09 02:14:28;;;;;;;;;;;;;;;25.23;42.55;100873.68;104634;1308;61048;-84
2022/09/09 02:16:58;;;;;;;;;;;;;;;25.23;42.51;100876.02;104668;1306;61434;-84
2022/09/09 02:19:34;;;;;;;;;;;;;;;25.23;42.44;100878.54;104620;1307;73924;-84
2022/09/09 02:22:00;;;;;;;;;;;;;;;25.23;42.59;100879.27;104590;1307;76028;-84
2022/09/09 02:24:26;;;;;;;;;;;;;;;25.23;42.55;100878.23;104660;1306;60441;-84
2022/09/09 02:26:52;;;;;;;;;;;;;;;25.23;42.46;100881.06;104661;1306;60441;-83
2022/09/09 02:29:19;;;;;;;;;;;;;;;25.23;42.56;100881.10;104671;1306;60481;-84
2022/09/09 02:31:44;;;;;;;;;;;;;;;25.22;42.57;100885.82;104660;1306;60408;-83
2022/09/09 02:34:10;;;;;;;;;;;;;;;25.23;42.49;100888.52;104676;1306;60429;-84
2022/09/09 02:36:36;;;;;;;;;;;;;;;25.23;42.54;100888.70;104667;1306;60504;-84
2022/09/09 02:39:02;;;;;;;;;;;;;;;25.22;42.60;100889.27;104597;1307;61154;-84
2022/09/09 02:41:30;;;;;;;;;;;;;;;25.22;42.47;100886.23;104732;1306;60397;-84
2022/09/09 02:43:56;;;;;;;;;;;;;;;25.22;42.61;100881.34;104680;1306;74892;-84
2022/09/09 02:46:25;;;;;;;;;;;;;;;25.22;42.51;100879.36;104624;1309;60542;-84
2022/09/09 02:48:59;;;;;;;;;;;;;;;25.21;42.48;100877.80;104616;1307;61337;-84
2022/09/09 02:51:32;;;;;;;;;;;;;;;25.22;42.51;100878.88;104656;1306;73912;-84
2022/09/09 02:54:00;;;;;;;;;;;;;;;25.22;42.48;100877.61;104655;1306;74941;-84
2022/09/09 02:56:25;;;;;;;;;;;;;;;25.22;42.50;100877.42;104612;1306;61023;-84
2022/09/09 02:58:51;;;;;;;;;;;;;;;25.22;42.54;100879.17;104660;1306;60506;-84
2022/09/09 03:01:17;;;;;;;;;;;;;;;25.22;42.43;100881.56;104693;1306;60344;-84
2022/09/09 03:03:44;;;;;;;;;;;;;;;25.22;42.50;100877.41;104678;1306;61243;-83
2022/09/09 03:06:11;;;;;;;;;;;;;;;25.22;42.63;100880.66;104688;1306;60491;-83
2022/09/09 03:08:37;;;;;;;;;;;;;;;25.22;42.62;100877.95;104822;1306;60577;-83
2022/09/09 03:11:03;;;;;;;;;;;;;;;25.22;42.57;100873.11;104660;1306;60493;-83
2022/09/09 03:13:28;;;;;;;;;;;;;;;25.21;42.52;100873.84;104764;1306;61278;-83
2022/09/09 03:15:55;;;;;;;;;;;;;;;25.21;42.58;100874.77;104680;1306;60574;-83
2022/09/09 03:18:20;;;;;;;;;;;;;;;25.22;42.44;100877.80;104711;1306;60587;-84
2022/09/09 03:20:46;;;;;;;;;;;;;;;25.21;42.62;100876.40;104832;1306;60551;-84
2022/09/09 03:23:13;;;;;;;;;;;;;;;25.21;42.59;100876.20;104583;1306;73826;-84
2022/09/09 03:25:39;;;;;;;;;;;;;;;25.21;42.66;100878.55;104690;1306;74002;-84
2022/09/09 03:28:04;;;;;;;;;;;;;;;25.21;42.65;100881.48;104615;1307;59289;-84
2022/09/09 03:30:30;;;;;;;;;;;;;;;25.21;42.59;100885.80;104598;1309;60537;-84
2022/09/09 03:32:56;;;;;;;;;;;;;;;25.21;42.59;100883.10;104740;1306;60458;-84
2022/09/09 03:35:21;;;;;;;;;;;;;;;25.20;42.45;100884.76;104682;1306;60475;-85
2022/09/09 03:37:47;;;;;;;;;;;;;;;25.20;42.58;100886.23;104802;1306;60567;-84
2022/09/09 03:40:13;;;;;;;;;;;;;;;25.20;42.60;100883.40;104784;1306;61248;-84
2022/09/09 03:42:39;;;;;;;;;;;;;;;25.19;42.79;100880.37;104768;1306;60491;-84
2022/09/09 03:45:08;;;;;;;;;;;;;;;25.18;42.60;100880.61;104668;1306;60548;-84
2022/09/09 03:47:34;;;;;;;;;;;;;;;25.18;42.52;100880.66;104777;1306;74899;-83
2022/09/09 03:50:00;;;;;;;;;;;;;;;25.16;42.62;100880.08;104783;1306;60493;-83
2022/09/09 03:52:26;;;;;;;;;;;;;;;25.16;42.66;100883.55;104647;1306;61195;-84
2022/09/09 03:54:52;;;;;;;;;;;;;;;25.14;42.58;100886.17;104769;1306;60497;-84
2022/09/09 03:57:18;;;;;;;;;;;;;;;25.14;42.72;100891.77;104642;1306;59784;-84
2022/09/09 03:59:44;;;;;;;;;;;;;;;25.14;42.70;100895.77;104664;1306;60447;-84
2022/09/09 04:02:09;;;;;;;;;;;;;;;25.13;42.48;100892.25;104723;1306;60580;-85
2022/09/09 04:04:35;;;;;;;;;;;;;;;25.12;42.54;100895.89;104807;1306;61343;-83
2022/09/09 04:07:00;;;;;;;;;;;;;;;25.12;42.51;100888.73;104579;1307;60465;-84
2022/09/09 04:09:26;;;;;;;;;;;;;;;25.11;42.47;100885.53;104600;1306;60527;-84
2022/09/09 04:11:52;;;;;;;;;;;;;;;25.10;42.56;100880.92;104682;1306;60465;-84
2022/09/09 04:14:18;;;;;;;;;;;;;;;25.09;42.46;100873.51;104701;1306;59255;-83
2022/09/09 04:16:44;;;;;;;;;;;;;;;25.08;42.38;100870.45;104670;1306;60678;-84
2022/09/09 04:19:13;;;;;;;;;;;;;;;25.07;42.34;100871.84;104703;1306;60422;-84
2022/09/09 04:21:39;;;;;;;;;;;;;;;25.06;42.50;100871.58;104686;1306;75013;-84
2022/09/09 04:24:06;;;;;;;;;;;;;;;25.06;42.45;100872.34;104715;1306;60537;-84
2022/09/09 04:26:32;;;;;;;;;;;;;;;25.04;42.49;100867.25;104697;1306;60376;-84
2022/09/09 04:28:57;;;;;;;;;;;;;;;25.04;42.44;100867.82;104576;1309;60488;-84
2022/09/09 04:31:23;;;;;;;;;;;;;;;25.03;42.58;100865.59;104609;1307;60471;-85
2022/09/09 04:33:51;;;;;;;;;;;;;;;25.02;42.47;100868.02;104660;1306;60495;-84
2022/09/09 04:36:19;;;;;;;;;;;;;;;25.01;42.31;100868.80;104489;1307;60497;-84
2022/09/09 04:38:45;;;;;;;;;;;;;;;25.00;42.43;100869.98;104450;1306;73747;-84
2022/09/09 04:41:11;;;;;;;;;;;;;;;24.99;42.50;100877.45;104494;1306;61106;-83
2022/09/09 04:43:38;;;;;;;;;;;;;;;24.97;42.51;100875.63;104573;1306;60295;-83
2022/09/09 04:46:03;;;;;;;;;;;;;;;24.93;42.48;100874.71;104294;1308;60404;-83
2022/09/09 04:48:31;;;;;;;;;;;;;;;24.89;42.55;100878.06;104274;1307;60474;-85
2022/09/09 04:51:03;;;;;;;;;;;;;;;24.88;42.63;100878.05;104463;1306;60497;-83
2022/09/09 04:53:29;;;;;;;;;;;;;;;24.83;42.47;100878.76;104527;1306;60436;-84
2022/09/09 04:56:01;;;;;;;;;;;;;;;24.78;42.59;100881.39;104549;1306;60625;-84
2022/09/09 04:58:47;;;;;;;;;;;;;;;24.74;42.61;100880.84;104527;1306;73677;-87
2022/09/09 05:03:50;;;;;;;;;;;;;;;24.65;42.64;100885.56;103912;1299;109140;-80
2022/09/09 05:06:16;;;;;;;;;;;;;;;24.66;42.70;100889.63;104259;1309;59274;-80
2022/09/09 05:08:42;;;;;;;;;;;;;;;24.66;42.66;100888.38;104103;1308;60312;-81
2022/09/09 05:11:20;;;;;;;;;;;;;;;24.67;42.66;100883.23;104139;1311;60402;-81
2022/09/09 05:13:46;;;;;;;;;;;;;;;24.69;42.53;100878.75;104345;1308;61436;-81
2022/09/09 05:16:12;;;;;;;;;;;;;;;24.64;42.50;100873.73;104158;1311;60526;-82
2022/09/09 05:18:40;;;;;;;;;;;;;;;24.60;42.50;100870.77;104103;1309;59305;-81
2022/09/09 05:21:06;;;;;;;;;;;;;;;24.59;42.43;100870.40;104239;1309;74070;-82
2022/09/09 05:23:33;;;;;;;;;;;;;;;24.55;42.42;100879.02;104317;1308;60491;-80
2022/09/09 05:25:59;;;;;;;;;;;;;;;24.56;42.38;100879.77;104462;1308;61584;-81
2022/09/09 05:28:25;;;;;;;;;;;;;;;24.60;42.38;100883.94;104341;1309;59327;-80
2022/09/09 05:31:28;;;;;;;;;;;;;;;24.63;42.30;100883.91;104228;1309;60636;-83
2022/09/09 05:33:53;;;;;;;;;;;;;;;24.68;42.14;100879.94;103584;1317;60539;-82
2022/09/09 05:36:20;;;;;;;;;;;;;;;24.71;42.13;100879.23;103740;1317;60492;-81
2022/09/09 05:38:45;;;;;;;;;;;;;;;24.75;42.18;100878.05;103696;1316;60503;-82
2022/09/09 05:41:11;;;;;;;;;;;;;;;24.77;42.20;100873.71;103721;1317;60510;-82
2022/09/09 05:43:36;;;;;;;;;;;;;;;24.80;42.16;100873.88;103653;1317;61217;-82
2022/09/09 05:46:09;;;;;;;;;;;;;;;24.82;42.04;100869.52;103587;1317;60579;-79
2022/09/09 05:48:36;;;;;;;;;;;;;;;24.84;41.90;100864.10;103685;1316;60472;-81
2022/09/09 05:51:02;;;;;;;;;;;;;;;24.86;41.93;100860.36;103604;1317;60434;-82
2022/09/09 05:53:27;;;;;;;;;;;;;;;24.87;41.89;100859.93;103591;1317;60286;-81
2022/09/09 05:56:19;;;;;;;;;;;;;;;24.83;41.73;100861.36;103597;1317;59314;-82
2022/09/09 05:58:49;;;;;;;;;;;;;;;24.76;41.68;100859.27;103462;1317;59912;-82
2022/09/09 06:01:15;;;;;;;;;;;;;;;24.72;41.71;100856.38;103503;1317;75093;-82
2022/09/09 06:03:41;;;;;;;;;;;;;;;24.67;41.67;100854.21;103420;1317;60592;-82
2022/09/09 06:06:07;;;;;;;;;;;;;;;24.68;41.59;100850.38;103678;1316;60457;-82
2022/09/09 06:08:33;;;;;;;;;;;;;;;24.71;41.64;100844.19;103624;1317;59303;-81
2022/09/09 06:11:17;;;;;;;;;;;;;;;24.74;41.61;100847.33;105147;1308;58483;-81
2022/09/09 06:13:43;;;;;;;;;;;;;;;24.79;41.60;100848.92;105173;1308;65219;-82
2022/09/09 06:16:09;;;;;;;;;;;;;;;24.83;41.59;100847.46;104866;1309;60508;-81
2022/09/09 06:18:34;;;;;;;;;;;;;;;24.87;41.50;100855.61;104354;1310;59451;-81
2022/09/09 06:21:00;;;;;;;;;;;;;;;24.89;41.45;100857.53;104282;1309;60369;-81
2022/09/09 06:23:26;;;;;;;;;;;;;;;24.92;41.32;100849.77;104256;1309;60543;-81
2022/09/09 06:26:00;;;;;;;;;;;;;;;24.95;41.39;100843.91;104263;1309;60651;-81
2022/09/09 06:28:25;;;;;;;;;;;;;;;24.97;41.25;100838.52;105101;1308;60158;-81
2022/09/09 06:30:56;;;;;;;;;;;;;;;24.99;41.27;100838.17;104697;1308;59452;-81
2022/09/09 06:33:22;;;;;;;;;;;;;;;25.01;41.12;100845.73;104432;1308;72095;-81
2022/09/09 06:35:52;;;;;;;;;;;;;;;25.02;41.11;100859.16;104212;1309;60619;-82
2022/09/09 06:38:18;;;;;;;;;;;;;;;25.03;40.97;100869.02;104202;1309;61713;-80
2022/09/09 06:40:50;;;;;;;;;;;;;;;25.02;41.04;100871.79;104714;1309;59302;-83
2022/09/09 06:43:16;;;;;;;;;;;;;;;25.02;41.09;100870.11;104171;1310;72793;-82
2022/09/09 06:45:42;;;;;;;;;;;;;;;25.03;41.03;100870.91;104203;1309;60495;-81
2022/09/09 06:48:08;;;;;;;;;;;;;;;25.04;41.02;100869.64;104213;1310;63064;-80
2022/09/09 06:50:34;;;;;;;;;;;;;;;25.04;41.09;100875.04;104241;1308;59317;-83
2022/09/09 06:53:02;;;;;;;;;;;;;;;25.04;41.08;100878.22;104255;1309;60424;-80
2022/09/09 06:55:27;;;;;;;;;;;;;;;25.05;41.06;100877.94;104135;1310;60588;-83
2022/09/09 06:57:53;;;;;;;;;;;;;;;25.05;41.07;100871.50;104338;1308;59175;-82
2022/09/09 07:00:19;;;;;;;;;;;;;;;25.01;41.05;100873.45;104210;1309;60495;-81
2022/09/09 07:02:45;;;;;;;;;;;;;;;24.97;40.99;100869.81;104192;1308;59405;-81
2022/09/09 07:05:10;;;;;;;;;;;;;;;24.96;40.98;100871.38;104298;1309;72781;-80
2022/09/09 07:07:36;;;;;;;;;;;;;;;24.97;41.15;100871.35;104179;1308;60497;-81
2022/09/09 07:10:03;;;;;;;;;;;;;;;24.99;41.08;100879.55;104182;1311;60521;-82
2022/09/09 07:12:29;;;;;;;;;;;;;;;25.01;41.18;100878.48;104239;1309;60531;-81
2022/09/09 07:14:55;;;;;;;;;;;;;;;25.03;41.15;100877.23;104203;1310;59258;-81
2022/09/09 07:17:20;;;;;;;;;;;;;;;25.05;41.20;100873.09;104219;1309;60581;-81
2022/09/09 07:19:47;;;;;;;;;;;;;;;25.08;41.34;100868.86;104188;1309;59550;-81
2022/09/09 07:22:13;;;;;;;;;;;;;;;25.10;41.14;100863.67;105107;1308;58886;-81
2022/09/09 07:24:38;;;;;;;;;;;;;;;25.14;41.34;100860.51;104252;1309;60481;-82
2022/09/09 07:27:05;;;;;;;;;;;;;;;25.17;41.30;100856.56;104334;1309;60481;-81
2022/09/09 07:29:31;;;;;;;;;;;;;;;25.18;41.26;100851.95;104210;1309;73993;-80
2022/09/09 07:31:56;;;;;;;;;;;;;;;25.18;41.29;100858.48;104195;1309;60608;-80
2022/09/09 07:34:22;;;;;;;;;;;;;;;25.18;41.06;100866.77;104239;1309;60448;-82
2022/09/09 07:36:48;;;;;;;;;;;;;;;25.14;40.96;100870.38;104169;1311;60511;-82
2022/09/09 07:39:14;;;;;;;;;;;;;;;25.10;40.89;100869.23;104172;1308;60577;-83
2022/09/09 07:41:42;;;;;;;;;;;;;;;25.07;40.94;100871.64;104143;1311;60433;-82
2022/09/09 07:44:12;;;;;;;;;;;;;;;25.07;40.99;100870.25;103906;1309;60618;-81
2022/09/09 07:46:38;;;;;;;;;;;;;;;25.08;40.94;100872.50;104153;1310;73872;-82
2022/09/09 07:49:04;;;;;;;;;;;;;;;25.08;40.87;100869.42;104184;1309;75327;-82
2022/09/09 07:51:30;;;;;;;;;;;;;;;25.07;40.79;100870.39;104295;1309;59626;-81
2022/09/09 07:53:59;;;;;;;;;;;;;;;25.07;40.88;100872.27;104262;1309;60334;-81
2022/09/09 07:56:25;;;;;;;;;;;;;;;25.06;40.71;100872.14;104313;1309;73637;-81
2022/09/09 07:58:51;;;;;;;;;;;;;;;25.03;40.82;100870.40;104276;1309;60457;-81
2022/09/09 08:01:26;;;;;;;;;;;;;;;24.99;40.86;100871.12;104831;1309;59761;-82
2022/09/09 08:03:59;;;;;;;;;;;;;;;24.98;40.84;100872.10;104850;1308;59198;-83
2022/09/09 08:06:26;;;;;;;;;;;;;;;25.01;41.07;100879.62;105052;1308;71456;-82
2022/09/09 08:08:52;;;;;;;;;;;;;;;25.06;41.13;100882.20;104822;1301;75370;-80
2022/09/09 08:11:17;;;;;;;;;;;;;;;25.10;41.19;100882.40;105006;1309;58805;-81
2022/09/09 08:13:43;;;;;;;;;;;;;;;25.12;41.21;100882.83;105195;1308;58815;-81
2022/09/09 08:16:08;;;;;;;;;;;;;;;25.14;41.33;100886.70;105058;1308;58658;-81
2022/09/09 08:18:34;;;;;;;;;;;;;;;25.18;41.19;100886.00;105286;1308;59436;-80
2022/09/09 08:21:11;;;;;;;;;;;;;;;25.20;41.17;100876.51;104858;1308;66113;-81
2022/09/09 08:23:36;;;;;;;;;;;;;;;25.19;41.22;100864.34;104232;1309;60484;-82
2022/09/09 08:26:05;;;;;;;;;;;;;;;25.20;41.17;100862.65;104173;1310;60637;-81
2022/09/09 08:28:31;;;;;;;;;;;;;;;25.20;41.21;100866.22;104466;1311;73839;-81
2022/09/09 08:31:04;;;;;;;;;;;;;;;25.20;41.27;100866.20;104257;1308;59382;-80
2022/09/09 08:33:29;;;;;;;;;;;;;;;25.22;41.23;100864.80;104333;1308;61290;-82
2022/09/09 08:35:55;;;;;;;;;;;;;;;25.23;41.32;100858.38;104074;1309;58811;-82
2022/09/09 08:38:21;;;;;;;;;;;;;;;25.24;41.05;100858.90;104258;1308;60388;-82
2022/09/09 08:40:48;;;;;;;;;;;;;;;25.24;41.00;100858.15;104331;1308;60370;-80
2022/09/09 08:43:14;;;;;;;;;;;;;;;25.24;40.89;100855.05;104239;1309;59353;-80
2022/09/09 08:45:49;;;;;;;;;;;;;;;25.25;40.83;100854.60;104276;1308;60577;-81
2022/09/09 08:48:14;;;;;;;;;;;;;;;25.26;40.91;100854.33;104216;1310;73152;-82
2022/09/09 08:50:41;;;;;;;;;;;;;;;25.29;41.03;100848.52;104310;1309;59070;-82
2022/09/09 08:53:17;;;;;;;;;;;;;;;25.32;41.15;100843.39;104305;1309;59175;-81
2022/09/09 08:55:55;;;;;;;;;;;;;;;25.35;41.39;100835.40;104400;1308;62276;-82
2022/09/09 08:58:21;;;;;;;;;;;;;;;25.37;41.45;100838.24;104178;1309;72905;-82
2022/09/09 09:01:06;;;;;;;;;;;;;;;25.38;41.45;100832.81;104308;1308;60436;-83
2022/09/09 09:03:58;;;;;;;;;;;;;;;25.40;41.55;100823.40;104029;1308;60634;-82
2022/09/09 09:06:35;;;;;;;;;;;;;;;25.45;41.57;100817.20;103450;1317;60606;-81
2022/09/09 09:09:04;;;;;;;;;;;;;;;25.46;41.43;100821.80;103492;1317;74441;-81
2022/09/09 09:11:36;;;;;;;;;;;;;;;25.47;41.32;100820.69;103483;1317;75480;-82
2022/09/09 09:14:03;;;;;;;;;;;;;;;25.48;41.08;100819.16;103712;1316;59382;-81
2022/09/09 09:16:55;;;;;;;;;;;;;;;25.48;41.08;100816.80;103550;1317;60602;-82
2022/09/09 09:19:22;;;;;;;;;;;;;;;25.48;40.92;100815.89;103242;1317;73798;-83
2022/09/09 09:21:54;;;;;;;;;;;;;;;25.48;40.51;100812.23;104202;1317;75042;-80
2022/09/09 09:24:22;;;;;;;;;;;;;;;25.49;40.69;100811.29;103392;1319;60497;-81
2022/09/09 09:26:48;;;;;;;;;;;;;;;25.49;40.67;100807.87;103976;1317;62241;-81
2022/09/09 09:29:15;;;;;;;;;;;;;;;25.49;40.64;100807.16;103446;1317;60556;-79
2022/09/09 09:31:47;;;;;;;;;;;;;;;25.49;40.72;100805.68;103386;1318;60483;-81
2022/09/09 09:34:13;;;;;;;;;;;;;;;25.51;40.73;100810.06;103676;1317;60752;-81
2022/09/09 09:36:39;;;;;;;;;;;;;;;25.51;40.53;100807.80;103291;1318;60528;-81
2022/09/09 09:39:05;;;;;;;;;;;;;;;25.52;40.63;100809.23;103689;1317;59273;-81
2022/09/09 09:41:30;;;;;;;;;;;;;;;25.52;40.52;100811.56;103618;1317;60538;-81
2022/09/09 09:43:56;;;;;;;;;;;;;;;25.52;40.43;100814.77;103973;1310;59411;-79
2022/09/09 09:46:26;;;;;;;;;;;;;;;25.53;40.46;100815.55;104390;1309;60536;-81
2022/09/09 09:49:01;;;;;;;;;;;;;;;25.55;40.35;100814.29;104378;1309;60563;-80
2022/09/09 09:51:27;;;;;;;;;;;;;;;25.58;40.12;100801.77;104272;1309;73700;-81
2022/09/09 09:54:13;;;;;;;;;;;;;;;25.59;40.29;100793.80;104288;1309;59352;-82
2022/09/09 09:56:39;;;;;;;;;;;;;;;25.61;40.08;100795.79;104185;1310;59446;-82
2022/09/09 09:59:05;;;;;;;;;;;;;;;25.63;39.98;100796.31;104140;1309;59848;-82
2022/09/09 10:01:33;;;;;;;;;;;;;;;25.66;39.76;100784.89;102696;1309;2252855;-81
2022/09/09 10:04:02;;;;;;;;;;;;;;;25.65;39.67;100783.16;104845;1309;58884;-80
2022/09/09 10:06:31;;;;;;;;;;;;;;;25.66;39.93;100787.02;104993;1308;58342;-82
2022/09/09 10:08:56;;;;;;;;;;;;;;;25.69;40.00;100786.45;104960;1308;58328;-82
2022/09/09 10:11:26;;;;;;;;;;;;;;;25.69;40.15;100783.52;105054;1308;58599;-83
2022/09/09 10:14:07;;;;;;;;;;;;;;;25.70;40.28;100777.98;105146;1309;65020;-82
2022/09/09 10:16:52;;;;;;;;;;;;;;;25.73;40.15;100774.83;104923;1308;61480;-81
2022/09/09 10:19:29;;;;;;;;;;;;;;;25.77;40.05;100770.21;104330;1309;60799;-82
2022/09/09 10:22:04;;;;;;;;;;;;;;;25.78;39.98;100780.70;104240;1311;72995;-79
2022/09/09 10:24:44;;;;;;;;;;;;;;;25.82;39.90;100786.52;104427;1309;75024;-81
2022/09/09 10:27:11;;;;;;;;;;;;;;;25.85;40.01;100786.34;104426;1309;61454;-82
2022/09/09 10:29:47;;;;;;;;;;;;;;;25.86;39.67;100789.19;104443;1308;61154;-81
2022/09/09 10:32:13;;;;;;;;;;;;;;;25.85;39.70;100787.98;104261;1309;73718;-82
2022/09/09 10:35:00;;;;;;;;;;;;;;;25.84;39.77;100785.18;104361;1309;59447;-82
2022/09/09 10:37:38;;;;;;;;;;;;;;;25.84;39.65;100787.34;104413;1306;61286;-83
2022/09/09 10:40:25;;;;;;;;;;;;;;;25.84;39.80;100785.35;104375;1309;60886;-82
2022/09/09 10:42:51;;;;;;;;;;;;;;;25.85;39.64;100783.19;104166;1309;73987;-83
2022/09/09 10:45:17;;;;;;;;;;;;;;;25.86;39.73;100776.05;104396;1309;60490;-82
2022/09/09 10:47:43;;;;;;;;;;;;;;;25.88;39.70;100777.66;104237;1309;60502;-80
2022/09/09 10:50:21;;;;;;;;;;;;;;;25.87;39.51;100774.61;104201;1308;60601;-80
2022/09/09 10:52:52;;;;;;;;;;;;;;;25.87;39.70;100774.13;104265;1308;72855;-81
2022/09/09 10:55:25;;;;;;;;;;;;;;;25.85;39.66;100769.41;104285;1309;73883;-81
2022/09/09 10:57:54;;;;;;;;;;;;;;;25.82;39.96;100768.81;104008;1309;60244;-82
2022/09/09 11:00:23;;;;;;;;;;;;;;;25.81;40.18;100763.17;104187;1309;60456;-81
2022/09/09 11:02:57;;;;;;;;;;;;;;;25.80;40.22;100763.37;104292;1308;72474;-83
2022/09/09 11:05:41;;;;;;;;;;;;;;;25.79;40.27;100760.60;104458;1309;74204;-81
2022/09/09 11:08:11;;;;;;;;;;;;;;;25.80;40.23;100756.09;104400;1309;60114;-81
2022/09/09 11:10:42;;;;;;;;;;;;;;;25.82;40.10;100754.18;104295;1309;61833;-82
2022/09/09 11:13:34;;;;;;;;;;;;;;;25.88;40.00;100747.19;104450;1309;73676;-82
2022/09/09 11:16:01;;;;;;;;;;;;;;;25.94;39.96;100743.39;104317;1308;74776;-82
2022/09/09 11:18:26;;;;;;;;;;;;;;;25.95;39.70;100742.19;104320;1309;61243;-81
2022/09/09 11:20:54;;;;;;;;;;;;;;;25.96;39.61;100746.63;104468;1309;60484;-81
2022/09/09 11:23:22;;;;;;;;;;;;;;;25.98;39.79;100745.89;105054;1308;73698;-83
2022/09/09 11:25:56;;;;;;;;;;;;;;;25.98;39.71;100751.65;104278;1309;74068;-82
2022/09/09 11:28:32;;;;;;;;;;;;;;;25.97;39.65;100751.74;104815;1309;60907;-83
2022/09/09 11:31:02;;;;;;;;;;;;;;;25.96;39.78;100747.19;104311;1309;61053;-82
2022/09/09 11:33:34;;;;;;;;;;;;;;;25.97;39.66;100742.63;104279;1309;73792;-81
2022/09/09 11:36:14;;;;;;;;;;;;;;;25.94;39.87;100738.63;104313;1308;72752;-81
2022/09/09 11:38:47;;;;;;;;;;;;;;;25.92;39.79;100737.21;104240;1309;61503;-81
2022/09/09 11:41:13;;;;;;;;;;;;;;;25.90;39.99;100730.89;104426;1309;60353;-81
2022/09/09 11:43:42;;;;;;;;;;;;;;;25.89;40.06;100730.11;104269;1309;60407;-82
2022/09/09 11:46:08;;;;;;;;;;;;;;;25.88;39.80;100728.45;104341;1308;74103;-83
2022/09/09 11:48:34;;;;;;;;;;;;;;;25.89;39.86;100729.60;104272;1309;59308;-82
2022/09/09 11:51:02;;;;;;;;;;;;;;;25.89;40.00;100735.55;104463;1308;60483;-82
2022/09/09 11:53:27;;;;;;;;;;;;;;;25.87;40.12;100733.41;104263;1309;60399;-82
2022/09/09 11:56:06;;;;;;;;;;;;;;;25.86;39.98;100738.13;104334;1309;60519;-81
2022/09/09 11:58:41;;;;;;;;;;;;;;;25.86;40.23;100740.45;104381;1309;60353;-81
2022/09/09 12:01:14;;;;;;;;;;;;;;;25.86;40.08;100734.91;104452;1308;61214;-82
2022/09/09 12:03:49;;;;;;;;;;;;;;;25.86;39.95;100728.96;104477;1308;73166;-81
2022/09/09 12:06:19;;;;;;;;;;;;;;;25.88;40.05;100726.46;104537;1309;73806;-82
2022/09/09 12:08:47;;;;;;;;;;;;;;;25.87;39.87;100722.16;104484;1309;61386;-82
2022/09/09 12:11:22;;;;;;;;;;;;;;;25.86;40.13;100716.66;104509;1309;61942;-81
2022/09/09 12:13:55;;;;;;;;;;;;;;;25.86;40.24;100714.58;104330;1309;73864;-82
2022/09/09 12:16:32;;;;;;;;;;;;;;;25.84;40.09;100708.77;104329;1309;74431;-82
2022/09/09 12:19:14;;;;;;;;;;;;;;;25.83;40.10;100703.33;104464;1309;60958;-83
2022/09/09 12:21:43;;;;;;;;;;;;;;;25.83;40.30;100700.61;104347;1309;60618;-82
2022/09/09 12:24:12;;;;;;;;;;;;;;;25.84;40.14;100696.74;104381;1308;72917;-82
2022/09/09 12:26:44;;;;;;;;;;;;;;;25.83;40.16;100692.11;104214;1310;75912;-81
2022/09/09 12:29:30;;;;;;;;;;;;;;;25.82;40.23;100688.80;104307;1309;60256;-84
2022/09/09 12:32:01;;;;;;;;;;;;;;;25.82;40.36;100685.73;104420;1309;61539;-81
2022/09/09 12:34:27;;;;;;;;;;;;;;;25.83;40.22;100676.98;104560;1309;72461;-81
2022/09/09 12:36:55;;;;;;;;;;;;;;;25.82;40.24;100675.43;104518;1309;60493;-82
2022/09/09 12:39:42;;;;;;;;;;;;;;;25.81;40.15;100674.60;104422;1308;60363;-82